Asheville, NC

9:38 PM EDT on May 26, 2015 (GMT -0400)
One University Heights | | Change Station
CLOSE
Current Station
Personal Weather Station
Location: Asheville, NC
Elevation: 2136 ft
Nearby Weather Stations

Elev 2136 ft 35.62 °N, 82.57 °W | Updated 7 minutes ago

Clear
Clear
71.0 °F
Feels Like 71.0 °F
N
0.0
Wind Variable Wind from WSW
Gusts 3.0 mph

Today
High -- | Low -- °F
--% Chance of Precip.
Yesterday
High -- | Low -- °F
Precip. -- in
6:18 AM 8:36 PM
Waxing Gibbous, 63% visible
Pressure 30.24 in
Visibility 5.0 miles
Clouds Scattered Clouds 1800 ft
Mostly Cloudy 3200 ft
Overcast 5500 ft
Dew Point 67 °F
Humidity 88%
Rainfall 0.60 in
Snow Depth Not available.
UV 0 out of 12
Pollen .80 out of 12
Air Quality Not available.
Flu Activity No Activity
SPECI KAVL 270109Z 13004KT 5SM +TSRA BR SCT018 BKN032 OVC055 18/17 A3024 RMK AO2 LTG DSNT E-SW TSB0056 P0011 T01780167

More Conditions Fewer Conditions

Pressure 30.24 in
Visibility 5.0 miles
Clouds Scattered Clouds 1800 ft
Mostly Cloudy 3200 ft
Overcast 5500 ft
Dew Point 67 °F
Humidity 88%
Rainfall 0.60 in
Snow Depth Not available.
UV 0 out of 12
Pollen .80 out of 12
Air Quality Not available.
Flu Activity No Activity
SPECI KAVL 270109Z 13004KT 5SM +TSRA BR SCT018 BKN032 OVC055 18/17 A3024 RMK AO2 LTG DSNT E-SW TSB0056 P0011 T01780167

More Conditions Fewer Conditions

10-Day Weather Forecast

Almanac

Astronomy

May. 26, 2015 Rise Set
Actual Time
Civil Twilight
Nautical Twilight
Astronomical Twilight
Moon
Length of Visible Light
Length of Day
Tomorrow will be .
, % of the Moon is Illuminated

Today's Extremes

State Highs State Lows

Community

WunderPhotos

Upload Photos

1,824,546 photos uploaded!

WunderBlogs® & News

Nearby

Air Quality

  Air Quality AQ Index Pollutant
Not available.

Snow Depth

Station Depth Elevation

Earthquake Activity

City Distance Mag. Time & Date
Minimum magnitude displayed is 2.5.

Coastal Water Temperatures

Place Temperature

Stations

Nearby Weather Stations

Station Location Temp. Windchill Dew Point Humidity Wind Precip. Elev Updated Type